Time;durP1;ratioP1;P1;durP2;ratioP2;P2;SDS_P1;SDS_P2;PMS_P1;PMS_P2;Temp;Humidity;BMP_temperature;BMP_pressure;BME280_temperature;BME280_humidity;BME280_pressure;Samples;Min_cycle;Max_cycle;Signal;HPM_P1;HPM_P2
2022/01/22 00:02:22;;;;;;;;;11.75;10.75;;;;;7.30;57.98;103337.75;5057456;28;45362;-76
2022/01/22 00:04:47;;;;;;;;;17.00;14.50;;;;;7.13;57.54;103319.81;5058815;28;45457;-76
2022/01/22 00:07:12;;;;;;;;;12.75;11.00;;;;;7.18;58.09;103331.41;5058377;28;45429;-77
2022/01/22 00:09:40;;;;;;;;;11.25;11.25;;;;;7.18;58.37;103336.75;5057126;28;45333;-76
2022/01/22 00:12:08;;;;;;;;;14.25;9.75;;;;;7.20;58.54;103334.09;5056793;28;45332;-76
2022/01/22 00:14:34;;;;;;;;;13.00;11.00;;;;;7.18;58.20;103319.84;5038819;28;45479;-76
2022/01/22 00:17:01;;;;;;;;;10.75;10.50;;;;;7.20;58.32;103320.75;5056538;28;45465;-76
2022/01/22 00:19:27;;;;;;;;;14.25;11.75;;;;;7.31;58.09;103328.88;5039028;28;46144;-76
2022/01/22 00:21:53;;;;;;;;;12.75;10.00;;;;;7.26;57.68;103307.47;5056564;28;45687;-76
2022/01/22 00:24:19;;;;;;;;;10.25;9.00;;;;;7.20;57.57;103318.97;5057057;28;45336;-76
2022/01/22 00:26:45;;;;;;;;;13.00;12.00;;;;;7.23;58.05;103321.66;5056323;28;46089;-76
2022/01/22 00:29:11;;;;;;;;;10.75;10.50;;;;;7.26;58.15;103312.78;5056579;28;46651;-76
2022/01/22 05:38:05;;;;;;;;;17.00;15.75;;;;;8.58;58.15;103281.56;5035294;28;45417;-76
2022/01/22 05:40:30;;;;;;;;;17.50;15.50;;;;;8.61;58.05;103275.31;5035349;28;45438;-77
2022/01/22 05:42:56;;;;;;;;;21.50;17.25;;;;;8.61;57.58;103269.97;5034828;28;45265;-76
2022/01/22 05:45:21;;;;;;;;;15.50;15.00;;;;;8.55;57.95;103273.53;5035385;28;46179;-75
2022/01/22 05:47:47;;;;;;;;;23.25;16.00;;;;;8.55;57.42;103270.84;5035099;28;45469;-75
2022/01/22 05:50:26;;;;;;;;;18.25;14.75;;;;;8.60;57.53;103270.84;5035547;28;45323;-75
2022/01/22 05:53:06;;;;;;;;;14.50;13.50;;;;;8.63;57.92;103266.41;5035071;28;46441;-76
2022/01/22 06:00:59;;;;;;;;;20.00;15.75;;;;;8.70;57.46;103286.03;5035318;28;45355;-76
2022/01/22 06:03:25;;;;;;;;;19.75;18.50;;;;;8.45;56.94;103238.72;5035113;28;45483;-76
2022/01/22 06:05:50;;;;;;;;;19.50;17.25;;;;;8.71;57.38;103293.16;5035051;28;45246;-77
2022/01/22 06:08:17;;;;;;;;;21.25;19.50;;;;;8.63;57.09;103281.56;5036387;28;45331;-75
2022/01/22 06:10:46;;;;;;;;;20.75;18.25;;;;;8.57;57.48;103273.53;5018377;28;45371;-76
2022/01/22 06:13:18;;;;;;;;;21.25;15.50;;;;;8.67;57.38;103292.28;5034642;28;45320;-76
2022/01/22 06:15:44;;;;;;;;;21.75;17.50;;;;;8.69;57.60;103290.47;5034694;28;45346;-77
2022/01/22 06:18:09;;;;;;;;;24.75;18.75;;;;;8.64;57.52;103283.34;5034445;28;45409;-76
2022/01/22 06:20:35;;;;;;;;;18.00;14.25;;;;;8.59;57.38;103272.63;5034861;28;45660;-75
2022/01/22 06:23:01;;;;;;;;;20.50;19.25;;;;;8.67;57.38;103280.69;5034703;28;45865;-75
2022/01/22 06:25:27;;;;;;;;;17.25;14.50;;;;;8.71;57.36;103290.50;5034410;28;46098;-76
2022/01/22 06:27:52;;;;;;;;;18.75;17.00;;;;;8.68;57.52;103282.47;5032782;28;45356;-77
2022/01/22 06:30:19;;;;;;;;;19.00;15.75;;;;;8.73;56.99;103281.59;5035304;28;45402;-77
2022/01/22 06:32:44;;;;;;;;;20.00;16.00;;;;;8.66;56.97;103274.47;5054668;28;45390;-76
2022/01/22 06:35:10;;;;;;;;;22.25;19.25;;;;;8.76;57.09;103291.41;5054442;28;45990;-76
2022/01/22 06:37:35;;;;;;;;;21.50;20.50;;;;;8.76;56.68;103290.53;5054766;28;45244;-77
2022/01/22 06:42:35;;;;;;;;;21.50;18.75;;;;;8.78;57.45;103291.41;5054406;28;45358;-77
2022/01/22 06:45:03;;;;;;;;;22.75;20.75;;;;;8.47;57.11;103240.53;5054880;28;45340;-76
2022/01/22 06:47:29;;;;;;;;;26.25;22.50;;;;;8.75;56.66;103291.41;5055263;28;45295;-76
2022/01/22 06:49:55;;;;;;;;;25.25;19.00;;;;;8.68;57.56;103279.78;5055192;28;45434;-76
2022/01/22 06:52:20;;;;;;;;;23.75;16.75;;;;;8.70;57.66;103286.03;5036157;28;45478;-76
2022/01/22 06:54:47;;;;;;;;;23.00;16.50;;;;;8.70;57.21;103283.34;5054164;28;46038;-75
2022/01/22 06:57:12;;;;;;;;;23.25;18.50;;;;;8.81;56.86;103299.44;5054128;28;45343;-75
2022/01/22 06:59:38;;;;;;;;;17.25;14.50;;;;;8.76;57.15;103290.53;5054329;28;45380;-75
2022/01/22 07:02:04;;;;;;;;;20.25;14.25;;;;;8.80;56.98;103294.97;5054292;28;45503;-75
2022/01/22 07:04:31;;;;;;;;;17.50;12.00;;;;;8.78;57.62;103288.72;5054401;28;45430;-75
2022/01/22 07:06:57;;;;;;;;;20.75;17.25;;;;;8.85;56.85;103310.13;5054140;28;45384;-76
2022/01/22 07:09:23;;;;;;;;;19.75;17.50;;;;;8.79;56.69;103291.41;5067817;28;45189;-77
2022/01/22 07:11:48;;;;;;;;;15.25;12.25;;;;;8.84;56.69;103304.81;5053779;28;45561;-76
2022/01/22 07:14:14;;;;;;;;;21.50;19.00;;;;;8.85;57.09;103306.56;5053940;28;46153;-77
2022/01/22 07:16:40;;;;;;;;;15.75;12.50;;;;;8.86;57.06;103311.03;5054244;28;45243;-77
2022/01/22 07:19:05;;;;;;;;;18.50;16.75;;;;;8.88;56.62;103303.91;5054280;28;45406;-75
2022/01/22 07:21:31;;;;;;;;;21.75;17.00;;;;;8.86;57.64;103294.97;5054242;28;45450;-75
2022/01/22 07:26:29;;;;;;;;;21.25;17.25;;;;;8.91;56.10;103303.91;5054959;28;45263;-77
2022/01/22 07:28:55;;;;;;;;;26.50;20.75;;;;;8.77;56.45;103293.19;5056396;28;45328;-75
2022/01/22 07:31:22;;;;;;;;;24.25;19.00;;;;;8.78;56.45;103294.06;5053663;28;45636;-75
2022/01/22 07:33:48;;;;;;;;;26.25;21.75;;;;;8.78;56.32;103310.13;5052341;28;47567;-74
2022/01/22 07:36:13;;;;;;;;;25.00;21.25;;;;;8.65;56.25;103307.44;5053476;28;45436;-76
2022/01/22 07:38:39;;;;;;;;;21.25;20.00;;;;;8.55;56.40;103307.38;5052731;28;45406;-75
2022/01/22 07:41:09;;;;;;;;;25.75;20.50;;;;;8.58;56.46;103319.00;5036123;28;46868;-75
2022/01/22 07:43:36;;;;;;;;;27.00;19.75;;;;;8.46;57.10;103300.22;5057352;28;45228;-76
2022/01/22 07:46:01;;;;;;;;;20.25;17.75;;;;;8.48;57.07;103318.94;5056436;28;45489;-76
2022/01/22 07:48:27;;;;;;;;;23.00;22.00;;;;;8.44;57.21;103310.00;5057509;28;45505;-76
2022/01/22 07:50:52;;;;;;;;;25.50;20.25;;;;;8.40;57.21;103307.34;5057292;28;45465;-75
2022/01/22 07:53:18;;;;;;;;;25.75;21.50;;;;;8.37;57.63;103315.34;5056734;28;46021;-76
2022/01/22 07:55:43;;;;;;;;;27.50;20.75;;;;;8.40;57.78;103323.38;5057219;28;45418;-76
2022/01/22 07:58:10;;;;;;;;;20.75;19.00;;;;;8.41;58.22;103323.38;5057253;28;45960;-76
2022/01/22 08:00:35;;;;;;;;;21.75;16.50;;;;;8.41;58.47;103315.38;5058935;28;45501;-75
2022/01/22 08:03:01;;;;;;;;;23.50;17.25;;;;;8.29;57.79;103299.22;5058115;28;45351;-75
2022/01/22 08:05:27;;;;;;;;;23.00;19.25;;;;;8.37;58.46;103324.25;5058031;28;45387;-75
2022/01/22 08:07:52;;;;;;;;;24.50;19.25;;;;;8.41;57.53;103339.44;5061086;28;45405;-77
2022/01/22 08:10:18;;;;;;;;;25.25;19.75;;;;;8.37;57.99;103331.38;5057912;28;45556;-76
2022/01/22 08:12:44;;;;;;;;;22.00;17.00;;;;;8.37;57.89;103326.03;5060213;28;45405;-76
2022/01/22 08:15:12;;;;;;;;;19.50;18.00;;;;;8.32;57.57;103336.72;5056670;28;45374;-76
2022/01/22 08:17:38;;;;;;;;;22.25;19.00;;;;;8.33;57.86;103338.50;5056777;28;45311;-75
2022/01/22 08:20:04;;;;;;;;;23.00;17.50;;;;;8.29;57.67;103334.88;5056798;28;45413;-76
2022/01/22 08:22:30;;;;;;;;;22.75;18.75;;;;;8.27;58.30;103339.31;5056747;28;45470;-78
2022/01/22 08:24:57;;;;;;;;;25.00;23.00;;;;;8.22;58.04;103330.38;5056641;28;45514;-74
2022/01/22 08:29:55;;;;;;;;;21.75;19.50;;;;;8.22;58.29;103346.41;5056639;28;45457;-77
2022/01/22 08:37:37;;;;;;;;;27.00;22.50;;;;;8.17;57.93;103347.25;5101557;27;45521;-60
2022/01/22 08:40:07;;;;;;;;;21.50;18.75;;;;;8.16;58.59;103342.84;5101585;27;45454;-60
2022/01/22 08:42:32;;;;;;;;;18.00;16.00;;;;;8.14;58.90;103334.81;5101340;27;48223;-59
2022/01/22 08:44:58;;;;;;;;;28.00;22.25;;;;;8.20;59.48;103347.28;5101495;27;45297;-64
2022/01/22 08:47:23;;;;;;;;;21.50;18.00;;;;;8.25;59.41;103353.56;5101703;27;45366;-59
2022/01/22 08:49:48;;;;;;;;;18.75;16.75;;;;;8.27;59.52;103359.78;5101319;27;45481;-59
2022/01/22 08:52:16;;;;;;;;;26.75;20.25;;;;;8.29;58.24;103352.69;5100708;27;46017;-60
2022/01/22 08:54:43;;;;;;;;;25.25;21.50;;;;;8.32;58.19;103361.66;5101427;27;45279;-59
2022/01/22 08:57:10;;;;;;;;;23.75;19.75;;;;;8.34;57.98;103362.53;5101325;27;45290;-60
2022/01/22 08:59:35;;;;;;;;;27.25;24.00;;;;;8.35;58.50;103371.44;5099503;27;45587;-61
2022/01/22 09:02:02;;;;;;;;;31.00;23.00;;;;;8.35;58.57;103368.78;5100534;27;45485;-59
2022/01/22 09:04:28;;;;;;;;;34.50;24.50;;;;;8.32;57.90;103369.69;5101105;27;45400;-59
2022/01/22 09:06:53;;;;;;;;;20.75;20.00;;;;;8.30;58.17;103375.84;5100531;27;45994;-59
2022/01/22 09:09:18;;;;;;;;;28.50;21.75;;;;;8.30;58.25;103379.44;5100836;27;45460;-59
2022/01/22 09:11:45;;;;;;;;;28.00;21.75;;;;;8.30;58.21;103381.19;5100443;27;46823;-60
2022/01/22 09:14:13;;;;;;;;;22.75;19.75;;;;;8.23;57.75;103368.69;5100830;27;45321;-60
2022/01/22 09:16:40;;;;;;;;;25.50;20.75;;;;;8.29;58.20;103385.66;5099087;27;45377;-59
2022/01/22 09:19:10;;;;;;;;;26.25;22.25;;;;;8.28;58.07;103378.50;5100218;27;45920;-59
2022/01/22 09:21:38;;;;;;;;;36.00;22.75;;;;;8.28;58.15;103386.53;5101022;27;46335;-59
2022/01/22 09:24:05;;;;;;;;;23.50;19.50;;;;;8.27;58.12;103381.16;5082827;27;45310;-59
2022/01/22 09:26:30;;;;;;;;;26.00;23.25;;;;;8.26;58.31;103382.06;5100853;27;45460;-58
2022/01/22 09:28:58;;;;;;;;;28.75;19.50;;;;;8.26;58.62;103390.06;5101008;27;45863;-59
2022/01/22 09:31:25;;;;;;;;;34.50;21.75;;;;;8.23;58.36;103392.75;5100852;27;46395;-59
2022/01/22 09:33:51;;;;;;;;;27.25;21.50;;;;;8.23;57.85;103388.28;5100729;27;45421;-58
2022/01/22 09:36:16;;;;;;;;;25.00;21.25;;;;;8.25;58.11;103401.69;5100931;27;45325;-59
2022/01/22 09:38:42;;;;;;;;;25.00;20.00;;;;;8.25;58.32;103405.22;5100901;27;45427;-58
2022/01/22 09:41:07;;;;;;;;;19.25;16.50;;;;;8.11;58.02;103376.63;5100697;27;45313;-58
2022/01/22 09:43:33;;;;;;;;;36.00;26.25;;;;;8.27;58.48;103400.78;5101052;27;45348;-59
2022/01/22 09:45:58;;;;;;;;;30.50;21.75;;;;;8.30;58.29;103399.91;5100795;27;45334;-58
2022/01/22 09:48:24;;;;;;;;;28.00;19.75;;;;;8.28;57.89;103396.31;5100895;27;45323;-59
2022/01/22 09:50:49;;;;;;;;;25.00;22.25;;;;;8.28;57.82;103396.31;5100567;27;46247;-59
2022/01/22 09:53:15;;;;;;;;;21.25;19.00;;;;;8.22;57.92;103389.19;5100481;27;45460;-58
2022/01/22 09:55:41;;;;;;;;;30.25;22.75;;;;;8.25;58.21;103404.34;5100599;27;45325;-59
2022/01/22 09:58:06;;;;;;;;;22.75;19.25;;;;;8.24;58.14;103395.44;5100492;27;45383;-58
2022/01/22 10:00:32;;;;;;;;;23.50;23.00;;;;;8.25;58.22;103396.34;5100378;27;45406;-59
2022/01/22 10:02:58;;;;;;;;;24.25;19.75;;;;;8.28;57.95;103402.56;5100484;27;45366;-60
2022/01/22 10:05:40;;;;;;;;;20.50;15.75;;;;;8.28;58.30;103405.25;5100492;27;45599;-59
2022/01/22 10:08:17;;;;;;;;;26.00;21.50;;;;;8.32;58.10;103409.78;5100006;27;45398;-58
2022/01/22 10:10:43;;;;;;;;;20.75;18.75;;;;;8.38;58.09;103410.69;5099953;27;46274;-57
2022/01/22 10:13:08;;;;;;;;;28.00;19.50;;;;;8.41;57.81;103410.72;5100062;27;45292;-58
2022/01/22 10:15:39;;;;;;;;;26.75;24.50;;;;;8.46;57.80;103415.19;5100068;27;45393;-57
2022/01/22 10:18:05;;;;;;;;;22.25;19.25;;;;;8.49;57.33;103417.00;5100002;27;45790;-58
2022/01/22 10:20:35;;;;;;;;;21.00;17.00;;;;;8.53;57.67;103406.31;5099713;27;45404;-58
2022/01/22 10:23:20;;;;;;;;;21.00;18.25;;;;;8.55;56.94;103404.53;5100098;27;45357;-58
2022/01/22 10:25:53;;;;;;;;;23.75;22.25;;;;;8.61;56.90;103415.25;5088093;27;45302;-58
2022/01/22 10:28:24;;;;;;;;;17.25;16.75;;;;;8.65;56.90;103414.41;5099525;27;45415;-58
2022/01/22 10:30:58;;;;;;;;;22.75;20.75;;;;;8.69;57.64;103415.28;5099876;27;46267;-58
2022/01/22 10:33:29;;;;;;;;;22.75;19.25;;;;;8.70;57.04;103417.06;5099639;27;45261;-57
2022/01/22 10:36:13;;;;;;;;;23.75;21.50;;;;;8.69;56.76;103417.97;5099857;27;45323;-59
2022/01/22 10:38:50;;;;;;;;;29.75;27.50;;;;;8.69;56.96;103426.88;5099762;27;45389;-58
2022/01/22 10:41:19;;;;;;;;;25.50;20.75;;;;;8.70;57.09;103420.66;5099570;27;45272;-60
2022/01/22 10:43:55;;;;;;;;;28.75;24.50;;;;;8.68;56.62;103414.38;5100016;27;45353;-57
2022/01/22 10:46:42;;;;;;;;;27.00;19.50;;;;;8.72;56.62;103423.34;5099917;27;45396;-59
2022/01/22 10:49:26;;;;;;;;;26.75;19.75;;;;;8.73;56.70;103419.78;5099976;27;46151;-58
2022/01/22 10:51:56;;;;;;;;;26.25;24.50;;;;;8.73;57.20;103411.75;5099774;27;46442;-59
2022/01/22 10:54:24;;;;;;;;;23.75;23.25;;;;;8.74;57.03;103410.88;5099860;27;45342;-59
2022/01/22 10:56:51;;;;;;;;;24.50;21.75;;;;;8.78;56.95;103417.09;5099595;27;45560;-59
2022/01/22 10:59:19;;;;;;;;;22.25;18.00;;;;;8.81;56.85;103401.97;5099226;27;45465;-58
2022/01/22 11:01:51;;;;;;;;;28.75;25.25;;;;;8.85;56.52;103410.88;5099337;27;46208;-58
2022/01/22 11:04:20;;;;;;;;;18.50;18.25;;;;;8.87;56.85;103410.00;5099546;27;45363;-59
2022/01/22 11:06:48;;;;;;;;;31.25;21.75;;;;;8.89;56.74;103405.56;5099304;27;45341;-59
2022/01/22 11:09:14;;;;;;;;;27.75;20.75;;;;;8.87;56.45;103404.66;5099325;27;45327;-59
2022/01/22 11:11:41;;;;;;;;;30.75;21.50;;;;;8.83;56.22;103399.31;5099208;27;46211;-59
2022/01/22 11:14:08;;;;;;;;;23.25;20.25;;;;;8.75;56.34;103404.63;5099221;27;45275;-58
2022/01/22 11:16:37;;;;;;;;;26.50;23.00;;;;;8.70;56.85;103403.72;5102314;27;45325;-59
2022/01/22 11:19:03;;;;;;;;;27.25;22.75;;;;;8.73;56.75;103401.06;5102970;27;45611;-57
2022/01/22 11:21:31;;;;;;;;;26.00;22.25;;;;;8.75;56.65;103404.63;5103025;27;45260;-60
2022/01/22 11:23:57;;;;;;;;;28.25;26.50;;;;;8.78;56.89;103399.28;5103079;27;45349;-58
2022/01/22 11:26:23;;;;;;;;;25.50;25.50;;;;;8.83;56.80;103399.31;5102917;27;45541;-59
2022/01/22 11:28:52;;;;;;;;;24.50;21.50;;;;;8.84;56.24;103402.00;5102887;27;45346;-58
2022/01/22 11:31:18;;;;;;;;;27.00;20.25;;;;;8.87;56.47;103398.41;5102801;27;46226;-59
2022/01/22 11:33:47;;;;;;;;;26.75;21.75;;;;;8.83;56.13;103394.84;5102782;27;45197;-59
2022/01/22 11:36:21;;;;;;;;;20.00;20.00;;;;;8.85;56.23;103401.09;5102753;27;45372;-60
2022/01/22 11:38:56;;;;;;;;;30.50;26.25;;;;;8.81;56.03;103398.41;5102209;27;45336;-60
2022/01/22 11:41:23;;;;;;;;;24.25;22.25;;;;;8.78;56.08;103391.25;5083761;27;47391;-62
2022/01/22 11:46:32;;;;;;;;;29.25;25.75;;;;;8.66;56.30;103380.53;5102674;27;45384;-60
2022/01/22 11:49:27;;;;;;;;;21.50;20.00;;;;;8.55;56.64;103374.22;5102585;27;45442;-60
2022/01/22 11:52:13;;;;;;;;;29.75;22.25;;;;;8.57;56.78;103380.50;5094254;27;47047;-60
2022/01/22 11:54:52;;;;;;;;;14.00;13.25;;;;;8.53;56.52;103371.53;5077503;27;45581;-60
2022/01/22 11:57:19;;;;;;;;;27.25;25.00;;;;;8.43;56.51;103375.06;5083798;27;45288;-61
2022/01/22 11:59:46;;;;;;;;;29.25;25.50;;;;;8.43;57.33;103374.16;5102494;27;45280;-61
2022/01/22 12:02:13;;;;;;;;;29.75;24.25;;;;;8.42;57.54;103372.41;5102293;27;46266;-60
2022/01/22 12:04:39;;;;;;;;;21.75;19.25;;;;;8.45;57.38;103367.94;5102333;27;45415;-59
2022/01/22 12:07:04;;;;;;;;;25.75;21.50;;;;;8.40;57.37;103364.38;5101243;27;45444;-60
2022/01/22 12:15:30;;;;;;;;;27.75;24.75;;;;;8.49;57.09;103356.38;5102227;27;45397;-60
2022/01/22 12:18:02;;;;;;;;;31.00;23.75;;;;;8.53;56.82;103363.53;5108322;27;45178;-60
2022/01/22 12:23:04;;;;;;;;;28.75;21.25;;;;;8.65;57.43;103360.91;5101886;27;45323;-60
2022/01/22 12:25:29;;;;;;;;;27.00;25.00;;;;;8.72;57.39;103359.16;5102093;27;45415;-59
2022/01/22 12:27:56;;;;;;;;;23.25;19.75;;;;;8.77;56.92;103357.38;5100751;27;45232;-59
2022/01/22 12:30:44;;;;;;;;;24.50;20.50;;;;;8.83;56.55;103351.16;5101842;27;45360;-59
2022/01/22 12:33:15;;;;;;;;;30.50;21.00;;;;;8.88;56.83;103349.38;5101715;27;45520;-62
2022/01/22 12:35:45;;;;;;;;;28.50;21.75;;;;;8.90;55.82;103361.00;5102476;27;45300;-61
2022/01/22 12:41:24;;;;;;;;;27.00;23.75;;;;;8.84;56.33;103343.16;5093975;27;45236;-62
2022/01/22 12:43:50;;;;;;;;;24.75;20.50;;;;;8.78;56.27;103342.22;5091684;27;47255;-60
2022/01/22 12:46:15;;;;;;;;;27.00;23.00;;;;;8.65;56.48;103336.84;5096825;27;45541;-58
2022/01/22 12:48:42;;;;;;;;;26.25;19.25;;;;;8.60;56.53;103329.66;5100972;27;45548;-60
2022/01/22 12:51:09;;;;;;;;;24.50;22.25;;;;;8.64;56.86;103329.72;5100755;27;45635;-61
2022/01/22 12:53:37;;;;;;;;;29.25;22.75;;;;;8.72;56.96;103330.63;5110748;27;46386;-63
2022/01/22 12:56:35;;;;;;;;;22.50;20.25;;;;;8.75;57.15;103327.06;5101325;27;45391;-60
2022/01/22 12:58:48;;;;;;;;;22.75;19.75;;;;;8.76;56.62;103318.16;5101180;27;45409;-61
2022/01/22 13:01:19;;;;;;;;;36.25;25.25;;;;;8.87;56.32;103324.41;5101480;27;45307;-60
2022/01/22 13:03:48;;;;;;;;;25.50;22.25;;;;;8.90;56.29;103329.78;5101226;27;47128;-60
2022/01/22 13:06:14;;;;;;;;;29.00;22.50;;;;;8.95;56.02;103322.66;5101218;27;45474;-61
2022/01/22 13:08:40;;;;;;;;;23.00;21.75;;;;;8.93;56.32;103313.72;5101121;27;45301;-60
2022/01/22 13:11:08;;;;;;;;;29.00;25.25;;;;;8.92;55.82;103303.94;5100867;27;45398;-60
2022/01/22 13:13:38;;;;;;;;;27.75;24.50;;;;;8.97;56.44;103311.94;5100884;27;45529;-61
2022/01/22 13:16:10;;;;;;;;;30.75;26.00;;;;;8.89;56.43;103314.63;5101349;27;45327;-60
2022/01/22 13:18:43;;;;;;;;;26.50;25.00;;;;;8.90;56.46;103307.50;5102774;27;45394;-60
2022/01/22 13:21:10;;;;;;;;;32.50;22.50;;;;;8.89;56.53;103309.25;5101119;27;46015;-61
2022/01/22 13:23:35;;;;;;;;;28.50;24.25;;;;;8.82;56.11;103317.28;5100775;27;46071;-60
2022/01/22 13:26:01;;;;;;;;;31.00;27.25;;;;;8.68;56.37;103311.88;5100798;27;45347;-60
2022/01/22 13:28:34;;;;;;;;;29.75;22.50;;;;;8.62;56.95;103302.06;5101076;27;45334;-60
2022/01/22 13:31:08;;;;;;;;;27.00;25.25;;;;;8.70;57.06;103310.09;5103265;27;45539;-61
2022/01/22 13:33:42;;;;;;;;;24.50;22.25;;;;;8.65;57.23;103295.84;5090787;27;45543;-60
2022/01/22 13:49:44;;;;;;;;;31.00;27.50;;;;;8.73;57.66;103292.28;5111138;27;45406;-60
2022/01/22 13:52:12;;;;;;;;;28.75;23.50;;;;;8.75;57.23;103289.63;5100163;27;45396;-60
2022/01/22 13:54:43;;;;;;;;;24.75;24.00;;;;;8.80;56.46;103284.28;5099507;27;45512;-60
2022/01/22 13:57:11;;;;;;;;;29.00;25.50;;;;;8.82;56.47;103279.84;5105641;27;45452;-60
2022/01/22 13:59:39;;;;;;;;;30.75;24.00;;;;;8.84;56.77;103275.38;5100458;27;45278;-60
2022/01/22 14:04:50;;;;;;;;;31.25;27.50;;;;;8.85;57.16;103274.47;5109274;27;46064;-60
2022/01/22 14:07:37;;;;;;;;;35.00;29.75;;;;;8.73;56.99;103270.00;5105727;27;45352;-60
2022/01/22 14:10:05;;;;;;;;;34.00;27.50;;;;;8.76;57.10;103271.81;5098350;27;45346;-60
2022/01/22 14:12:56;;;;;;;;;30.00;24.75;;;;;8.78;57.14;103273.56;5099308;27;45390;-60
2022/01/22 14:15:34;;;;;;;;;31.25;27.75;;;;;8.81;57.13;103273.59;5100042;27;46094;-60
2022/01/22 14:20:54;;;;;;;;;40.00;27.00;;;;;8.84;57.40;103280.72;5099895;27;45343;-60
2022/01/22 14:23:29;;;;;;;;;39.50;32.25;;;;;8.74;57.28;103279.81;5104214;27;45336;-60
2022/01/22 14:26:02;;;;;;;;;35.00;30.25;;;;;8.68;57.27;103277.09;5099838;27;45367;-60
2022/01/22 14:29:08;;;;;;;;;33.00;28.25;;;;;8.61;57.70;103270.84;5099898;27;45316;-61
2022/01/22 14:31:44;;;;;;;;;32.50;26.00;;;;;8.63;57.90;103274.44;5016868;28;45413;-60
2022/01/22 14:34:12;;;;;;;;;35.00;29.50;;;;;8.63;57.77;103270.88;5082143;27;45524;-60
2022/01/22 14:36:49;;;;;;;;;35.25;29.25;;;;;8.64;57.91;103262.84;5097674;27;46200;-61
2022/01/22 14:44:39;;;;;;;;;35.00;28.25;;;;;8.51;57.23;103242.31;5085314;27;45603;-61
2022/01/22 14:47:12;;;;;;;;;33.25;29.00;;;;;8.61;57.57;103269.97;5099544;27;46362;-60
2022/01/22 14:49:44;;;;;;;;;35.50;29.75;;;;;8.61;57.54;103276.22;5099201;27;45502;-61
2022/01/22 14:52:12;;;;;;;;;33.25;32.50;;;;;8.44;57.85;103263.66;5099837;27;45306;-61
2022/01/22 14:54:40;;;;;;;;;34.25;30.00;;;;;8.43;58.34;103270.81;5099604;27;45421;-60
2022/01/22 14:57:07;;;;;;;;;30.00;27.25;;;;;8.38;58.05;103274.34;5099130;27;46807;-60
2022/01/22 14:59:34;;;;;;;;;38.50;26.00;;;;;8.38;58.22;103261.88;5099622;27;45269;-60
2022/01/22 15:02:00;;;;;;;;;28.00;24.25;;;;;8.42;58.49;103258.31;5099656;27;45252;-60
2022/01/22 15:04:27;;;;;;;;;34.50;28.75;;;;;8.44;58.35;103251.19;5099550;27;45483;-61
2022/01/22 15:06:52;;;;;;;;;34.50;29.75;;;;;8.46;58.55;103260.13;5099236;27;45994;-59
2022/01/22 15:09:18;;;;;;;;;36.25;29.75;;;;;8.41;58.29;103259.22;5099502;27;45489;-60
2022/01/22 15:11:44;;;;;;;;;42.00;31.25;;;;;8.39;58.04;103254.75;5099351;27;45394;-61
2022/01/22 15:14:10;;;;;;;;;32.75;28.75;;;;;8.36;58.68;103255.63;5081065;27;45419;-60
2022/01/22 15:16:39;;;;;;;;;34.50;28.75;;;;;8.33;58.71;103266.34;5099304;27;46600;-59
2022/01/22 15:19:12;;;;;;;;;39.00;30.75;;;;;8.33;59.09;103261.00;5099411;27;45318;-60
2022/01/22 15:21:38;;;;;;;;;42.50;35.00;;;;;8.35;58.69;103264.53;5099689;27;45423;-59
2022/01/22 15:24:04;;;;;;;;;38.25;32.50;;;;;8.29;58.90;103265.38;5099276;27;45477;-60
2022/01/22 15:26:30;;;;;;;;;36.75;31.50;;;;;8.26;59.40;103261.78;5098884;27;45273;-64
2022/01/22 15:28:56;;;;;;;;;35.00;29.25;;;;;8.29;59.15;103262.72;5099451;27;45380;-63
2022/01/22 15:31:31;;;;;;;;;34.25;32.25;;;;;8.32;59.22;103264.53;5099459;27;45452;-63
2022/01/22 15:34:10;;;;;;;;;39.00;32.00;;;;;8.37;58.61;103265.44;5099014;27;45415;-63
2022/01/22 15:36:37;;;;;;;;;40.25;30.50;;;;;8.29;58.38;103272.50;5099388;27;45364;-63
2022/01/22 15:39:05;;;;;;;;;31.00;25.75;;;;;8.24;58.82;103261.81;5098844;27;45355;-64
2022/01/22 15:41:33;;;;;;;;;33.50;31.50;;;;;8.18;58.86;103260.88;5099127;27;45345;-63
2022/01/22 15:44:01;;;;;;;;;31.00;29.75;;;;;8.24;59.41;103268.94;5098963;27;45464;-63
2022/01/22 15:46:27;;;;;;;;;33.75;32.00;;;;;8.33;59.33;103258.31;5099073;27;46192;-63
2022/01/22 15:48:53;;;;;;;;;40.25;32.00;;;;;8.43;59.07;103260.09;5099031;27;45186;-63
2022/01/22 15:51:18;;;;;;;;;39.50;32.50;;;;;8.51;58.79;103258.34;5099211;27;45298;-63
2022/01/22 15:53:44;;;;;;;;;36.50;31.50;;;;;8.47;58.62;103240.53;5098845;27;45330;-63
2022/01/22 15:56:09;;;;;;;;;35.75;30.75;;;;;8.64;58.37;103261.97;5098765;27;46497;-63
2022/01/22 15:58:35;;;;;;;;;37.50;31.00;;;;;8.68;58.29;103256.59;5098830;27;45502;-63
2022/01/22 16:01:00;;;;;;;;;38.00;32.00;;;;;8.71;58.51;103253.94;5099512;27;45457;-63
2022/01/22 16:03:26;;;;;;;;;31.50;24.50;;;;;8.73;57.93;103259.31;5102045;27;45537;-63
2022/01/22 16:05:55;;;;;;;;;34.25;28.00;;;;;8.73;58.76;103265.56;5102491;27;47055;-62
2022/01/22 16:08:20;;;;;;;;;38.25;28.75;;;;;8.72;58.40;103265.53;5101866;27;45490;-61
2022/01/22 16:10:45;;;;;;;;;37.00;32.00;;;;;8.79;58.30;103277.13;5102417;27;45362;-63
2022/01/22 16:13:11;;;;;;;;;39.00;34.75;;;;;8.70;57.65;103286.03;5102033;27;45459;-63
2022/01/22 16:15:36;;;;;;;;;33.50;27.25;;;;;8.62;58.39;103285.13;5102104;27;46291;-63
2022/01/22 16:18:02;;;;;;;;;41.50;36.25;;;;;8.59;58.35;103294.03;5102230;27;45315;-62
2022/01/22 16:20:28;;;;;;;;;32.25;27.25;;;;;8.53;58.49;103291.34;5102493;27;45305;-62
2022/01/22 16:22:53;;;;;;;;;39.50;32.50;;;;;8.40;58.68;103291.31;5101869;27;46287;-62
2022/01/22 16:25:19;;;;;;;;;33.75;29.00;;;;;8.31;59.00;103294.81;5102026;27;45166;-63
2022/01/22 16:27:44;;;;;;;;;40.00;37.25;;;;;8.17;60.02;103299.16;5101580;27;45307;-62
2022/01/22 16:30:10;;;;;;;;;41.75;34.50;;;;;8.12;59.63;103284.91;5102381;27;45317;-64
2022/01/22 16:32:36;;;;;;;;;36.75;32.25;;;;;8.13;59.91;103298.28;5101952;27;45271;-64
2022/01/22 16:35:01;;;;;;;;;33.50;31.25;;;;;8.14;60.16;103301.84;5101587;27;45485;-62
2022/01/22 16:37:27;;;;;;;;;39.00;35.25;;;;;8.10;60.39;103303.59;5101576;27;45420;-64
2022/01/22 16:39:55;;;;;;;;;32.25;27.50;;;;;8.15;60.21;103312.53;5101920;27;45408;-63
2022/01/22 16:42:21;;;;;;;;;34.25;27.25;;;;;8.11;60.23;103305.38;5101261;27;45369;-63
2022/01/22 16:45:21;;;;;;;;;38.50;35.50;;;;;8.07;60.11;103316.06;5101043;27;46950;-64
2022/01/22 16:53:47;;;;;;;;;46.50;34.00;;;;;7.81;61.03;103314.13;5101573;27;45319;-63
2022/01/22 16:55:56;;;;;;;;;42.50;32.50;;;;;7.80;61.36;103320.34;5100883;27;45406;-65
2022/01/22 16:58:31;;;;;;;;;45.00;33.50;;;;;7.83;61.80;103316.78;5101420;27;45297;-63
2022/01/22 17:00:59;;;;;;;;;37.00;34.25;;;;;7.84;61.26;103313.22;5101602;27;45417;-65
2022/01/22 17:03:29;;;;;;;;;37.50;34.75;;;;;7.93;61.36;103321.28;5101320;27;45376;-64
2022/01/22 17:05:56;;;;;;;;;47.50;41.50;;;;;7.94;61.16;103313.31;5101416;27;45994;-66
2022/01/22 17:08:35;;;;;;;;;42.50;34.25;;;;;7.88;61.20;103307.94;5101039;27;45423;-63
2022/01/22 17:16:32;;;;;;;;;41.25;32.75;;;;;7.76;61.78;103309.63;5101153;27;45766;-63
2022/01/22 17:18:58;;;;;;;;;44.25;35.75;;;;;7.69;62.06;103307.78;5101196;27;45307;-62
2022/01/22 17:21:23;;;;;;;;;52.75;39.50;;;;;7.63;62.39;103305.09;5100939;27;45275;-63
2022/01/22 17:23:52;;;;;;;;;45.25;38.50;;;;;7.59;62.67;103306.81;5101042;27;45236;-63
2022/01/22 17:26:19;;;;;;;;;49.50;34.50;;;;;7.54;62.68;103314.81;5100608;27;46167;-64
2022/01/22 17:28:44;;;;;;;;;39.75;34.00;;;;;7.51;63.18;103309.44;5100941;27;45723;-63
2022/01/22 17:31:10;;;;;;;;;33.75;29.25;;;;;7.50;62.20;103298.75;5101199;27;45236;-66
2022/01/22 17:33:35;;;;;;;;;37.00;33.50;;;;;7.47;63.12;103306.75;5101111;27;45253;-64
2022/01/22 17:36:01;;;;;;;;;41.50;28.25;;;;;7.45;63.27;103308.50;5100561;27;45457;-63
2022/01/22 17:38:26;;;;;;;;;42.25;35.25;;;;;7.48;63.41;103297.88;5099013;27;45489;-62